sensor_id;sensor_type;location;lat;lon;timestamp;P1;durP1;ratioP1;P2;durP2;ratioP2
5257;SDS011;2651;51.594;9.928;2023-09-19T00:00:59;0.70;;;0.60;;
5257;SDS011;2651;51.594;9.928;2023-09-19T00:02:02;0.90;;;0.70;;
5257;SDS011;2651;51.594;9.928;2023-09-19T00:03:08;2.43;;;0.70;;
5257;SDS011;2651;51.594;9.928;2023-09-19T00:04:10;4.30;;;1.23;;
5257;SDS011;2651;51.594;9.928;2023-09-19T00:05:14;0.80;;;0.80;;
5257;SDS011;2651;51.594;9.928;2023-09-19T00:06:16;0.67;;;0.67;;
5257;SDS011;2651;51.594;9.928;2023-09-19T00:07:18;1.40;;;1.10;;
5257;SDS011;2651;51.594;9.928;2023-09-19T00:08:20;0.93;;;0.93;;
5257;SDS011;2651;51.594;9.928;2023-09-19T00:09:25;2.20;;;1.07;;
5257;SDS011;2651;51.594;9.928;2023-09-19T00:10:29;0.90;;;0.73;;
5257;SDS011;2651;51.594;9.928;2023-09-19T00:11:32;0.80;;;0.80;;
5257;SDS011;2651;51.594;9.928;2023-09-19T00:12:36;0.80;;;0.80;;
5257;SDS011;2651;51.594;9.928;2023-09-19T00:13:37;0.90;;;0.80;;
5257;SDS011;2651;51.594;9.928;2023-09-19T00:14:40;0.80;;;0.80;;
5257;SDS011;2651;51.594;9.928;2023-09-19T00:15:43;0.80;;;0.80;;
5257;SDS011;2651;51.594;9.928;2023-09-19T00:16:52;1.83;;;1.13;;
5257;SDS011;2651;51.594;9.928;2023-09-19T00:17:56;0.90;;;0.90;;
5257;SDS011;2651;51.594;9.928;2023-09-19T00:18:58;0.70;;;0.70;;
5257;SDS011;2651;51.594;9.928;2023-09-19T00:20:04;0.73;;;0.73;;
5257;SDS011;2651;51.594;9.928;2023-09-19T00:21:08;0.80;;;0.80;;
5257;SDS011;2651;51.594;9.928;2023-09-19T00:22:11;1.43;;;0.87;;
5257;SDS011;2651;51.594;9.928;2023-09-19T00:23:14;1.13;;;0.90;;
5257;SDS011;2651;51.594;9.928;2023-09-19T00:24:16;6.00;;;0.93;;
5257;SDS011;2651;51.594;9.928;2023-09-19T00:25:19;0.80;;;0.80;;
5257;SDS011;2651;51.594;9.928;2023-09-19T00:26:21;0.80;;;0.80;;
5257;SDS011;2651;51.594;9.928;2023-09-19T00:27:23;0.80;;;0.80;;
5257;SDS011;2651;51.594;9.928;2023-09-19T00:28:25;1.50;;;0.80;;
5257;SDS011;2651;51.594;9.928;2023-09-19T00:29:27;0.90;;;0.70;;
5257;SDS011;2651;51.594;9.928;2023-09-19T00:30:33;2.00;;;0.90;;
5257;SDS011;2651;51.594;9.928;2023-09-19T00:31:35;1.13;;;1.03;;
5257;SDS011;2651;51.594;9.928;2023-09-19T00:32:39;0.70;;;0.70;;
5257;SDS011;2651;51.594;9.928;2023-09-19T00:33:41;1.37;;;0.93;;
5257;SDS011;2651;51.594;9.928;2023-09-19T00:34:43;0.90;;;0.90;;
5257;SDS011;2651;51.594;9.928;2023-09-19T00:35:49;4.40;;;0.90;;
5257;SDS011;2651;51.594;9.928;2023-09-19T00:36:51;0.60;;;0.60;;
5257;SDS011;2651;51.594;9.928;2023-09-19T00:37:55;1.73;;;0.90;;
5257;SDS011;2651;51.594;9.928;2023-09-19T00:38:57;0.80;;;0.80;;
5257;SDS011;2651;51.594;9.928;2023-09-19T00:39:59;0.70;;;0.70;;
5257;SDS011;2651;51.594;9.928;2023-09-19T00:41:08;0.80;;;0.80;;
5257;SDS011;2651;51.594;9.928;2023-09-19T00:42:20;2.07;;;1.30;;
5257;SDS011;2651;51.594;9.928;2023-09-19T00:43:27;0.80;;;0.80;;
5257;SDS011;2651;51.594;9.928;2023-09-19T00:44:29;2.70;;;1.00;;
5257;SDS011;2651;51.594;9.928;2023-09-19T00:45:31;1.27;;;1.17;;
5257;SDS011;2651;51.594;9.928;2023-09-19T00:46:33;0.90;;;0.80;;
5257;SDS011;2651;51.594;9.928;2023-09-19T00:47:35;1.10;;;1.00;;
5257;SDS011;2651;51.594;9.928;2023-09-19T00:48:40;0.80;;;0.80;;
5257;SDS011;2651;51.594;9.928;2023-09-19T00:49:45;1.33;;;1.17;;
5257;SDS011;2651;51.594;9.928;2023-09-19T00:50:50;0.90;;;0.90;;
5257;SDS011;2651;51.594;9.928;2023-09-19T00:51:52;0.70;;;0.70;;
5257;SDS011;2651;51.594;9.928;2023-09-19T00:52:55;0.70;;;0.70;;
5257;SDS011;2651;51.594;9.928;2023-09-19T00:53:59;5.13;;;1.30;;
5257;SDS011;2651;51.594;9.928;2023-09-19T00:55:02;1.87;;;1.03;;
5257;SDS011;2651;51.594;9.928;2023-09-19T00:56:05;0.97;;;0.87;;
5257;SDS011;2651;51.594;9.928;2023-09-19T00:57:08;1.10;;;0.90;;
5257;SDS011;2651;51.594;9.928;2023-09-19T00:58:09;1.20;;;1.10;;
5257;SDS011;2651;51.594;9.928;2023-09-19T00:59:12;1.03;;;0.93;;
5257;SDS011;2651;51.594;9.928;2023-09-19T01:00:13;0.90;;;0.80;;
5257;SDS011;2651;51.594;9.928;2023-09-19T01:01:17;1.13;;;1.00;;
5257;SDS011;2651;51.594;9.928;2023-09-19T01:02:19;0.87;;;0.87;;
5257;SDS011;2651;51.594;9.928;2023-09-19T01:03:22;1.27;;;0.90;;
5257;SDS011;2651;51.594;9.928;2023-09-19T01:04:24;1.13;;;1.07;;
5257;SDS011;2651;51.594;9.928;2023-09-19T01:05:26;0.77;;;0.77;;
5257;SDS011;2651;51.594;9.928;2023-09-19T01:06:29;0.90;;;0.90;;
5257;SDS011;2651;51.594;9.928;2023-09-19T01:07:32;1.50;;;0.97;;
5257;SDS011;2651;51.594;9.928;2023-09-19T01:08:35;0.90;;;0.90;;
5257;SDS011;2651;51.594;9.928;2023-09-19T01:09:38;1.07;;;1.03;;
5257;SDS011;2651;51.594;9.928;2023-09-19T01:10:43;0.80;;;0.80;;
5257;SDS011;2651;51.594;9.928;2023-09-19T01:11:51;1.67;;;0.77;;
5257;SDS011;2651;51.594;9.928;2023-09-19T01:17:05;1.37;;;0.90;;
5257;SDS011;2651;51.594;9.928;2023-09-19T01:22:16;1.60;;;1.33;;
5257;SDS011;2651;51.594;9.928;2023-09-19T01:24:34;1.10;;;1.00;;
5257;SDS011;2651;51.594;9.928;2023-09-19T01:26:05;1.07;;;0.90;;
5257;SDS011;2651;51.594;9.928;2023-09-19T01:27:25;1.17;;;1.07;;
5257;SDS011;2651;51.594;9.928;2023-09-19T01:30:13;0.93;;;0.90;;
5257;SDS011;2651;51.594;9.928;2023-09-19T01:31:18;1.83;;;1.00;;
5257;SDS011;2651;51.594;9.928;2023-09-19T01:32:22;0.90;;;0.80;;
5257;SDS011;2651;51.594;9.928;2023-09-19T01:33:26;1.33;;;0.90;;
5257;SDS011;2651;51.594;9.928;2023-09-19T01:34:43;1.00;;;0.90;;
5257;SDS011;2651;51.594;9.928;2023-09-19T01:35:54;1.03;;;0.93;;
5257;SDS011;2651;51.594;9.928;2023-09-19T01:36:58;5.63;;;0.90;;
5257;SDS011;2651;51.594;9.928;2023-09-19T01:38:03;1.53;;;1.10;;
5257;SDS011;2651;51.594;9.928;2023-09-19T01:39:06;1.20;;;1.10;;
5257;SDS011;2651;51.594;9.928;2023-09-19T01:40:12;2.40;;;1.10;;
5257;SDS011;2651;51.594;9.928;2023-09-19T01:41:21;0.83;;;0.83;;
5257;SDS011;2651;51.594;9.928;2023-09-19T01:42:36;1.20;;;1.10;;
5257;SDS011;2651;51.594;9.928;2023-09-19T01:43:44;2.27;;;1.10;;
5257;SDS011;2651;51.594;9.928;2023-09-19T01:45:59;1.60;;;0.97;;
5257;SDS011;2651;51.594;9.928;2023-09-19T01:47:04;1.30;;;1.20;;
5257;SDS011;2651;51.594;9.928;2023-09-19T01:48:25;2.00;;;1.00;;
5257;SDS011;2651;51.594;9.928;2023-09-19T01:49:37;1.27;;;1.17;;
5257;SDS011;2651;51.594;9.928;2023-09-19T01:50:53;1.27;;;1.00;;
5257;SDS011;2651;51.594;9.928;2023-09-19T01:53:22;1.50;;;1.40;;
5257;SDS011;2651;51.594;9.928;2023-09-19T01:54:30;1.10;;;1.00;;
5257;SDS011;2651;51.594;9.928;2023-09-19T01:55:43;0.90;;;0.90;;
5257;SDS011;2651;51.594;9.928;2023-09-19T01:57:01;1.13;;;1.03;;
5257;SDS011;2651;51.594;9.928;2023-09-19T01:58:16;1.00;;;1.00;;
5257;SDS011;2651;51.594;9.928;2023-09-19T01:59:21;0.93;;;0.83;;
5257;SDS011;2651;51.594;9.928;2023-09-19T02:00:28;1.93;;;0.90;;
5257;SDS011;2651;51.594;9.928;2023-09-19T02:01:33;1.30;;;1.07;;
5257;SDS011;2651;51.594;9.928;2023-09-19T02:02:39;0.97;;;0.83;;
5257;SDS011;2651;51.594;9.928;2023-09-19T02:03:46;1.33;;;1.27;;
5257;SDS011;2651;51.594;9.928;2023-09-19T02:04:50;1.97;;;1.40;;
5257;SDS011;2651;51.594;9.928;2023-09-19T02:05:52;1.07;;;0.97;;
5257;SDS011;2651;51.594;9.928;2023-09-19T02:06:55;1.33;;;1.20;;
5257;SDS011;2651;51.594;9.928;2023-09-19T02:07:58;1.20;;;1.10;;
5257;SDS011;2651;51.594;9.928;2023-09-19T02:09:00;1.33;;;0.90;;
5257;SDS011;2651;51.594;9.928;2023-09-19T02:10:01;1.20;;;1.10;;
5257;SDS011;2651;51.594;9.928;2023-09-19T02:11:07;1.13;;;1.13;;
5257;SDS011;2651;51.594;9.928;2023-09-19T02:12:09;1.53;;;1.07;;
5257;SDS011;2651;51.594;9.928;2023-09-19T02:13:10;1.30;;;1.10;;
5257;SDS011;2651;51.594;9.928;2023-09-19T02:14:12;0.90;;;0.90;;
5257;SDS011;2651;51.594;9.928;2023-09-19T02:15:15;2.97;;;1.03;;
5257;SDS011;2651;51.594;9.928;2023-09-19T02:16:17;1.23;;;1.20;;
5257;SDS011;2651;51.594;9.928;2023-09-19T02:17:22;1.10;;;1.00;;
5257;SDS011;2651;51.594;9.928;2023-09-19T02:18:30;1.33;;;1.23;;
5257;SDS011;2651;51.594;9.928;2023-09-19T02:19:38;2.20;;;1.00;;
5257;SDS011;2651;51.594;9.928;2023-09-19T02:20:40;1.87;;;1.10;;
5257;SDS011;2651;51.594;9.928;2023-09-19T02:21:42;1.30;;;1.17;;
5257;SDS011;2651;51.594;9.928;2023-09-19T02:22:45;0.90;;;0.90;;
5257;SDS011;2651;51.594;9.928;2023-09-19T02:23:51;1.20;;;1.10;;
5257;SDS011;2651;51.594;9.928;2023-09-19T02:24:53;1.63;;;1.20;;
5257;SDS011;2651;51.594;9.928;2023-09-19T02:25:55;1.10;;;1.10;;
5257;SDS011;2651;51.594;9.928;2023-09-19T02:27:01;0.97;;;0.90;;
5257;SDS011;2651;51.594;9.928;2023-09-19T02:28:05;1.27;;;1.17;;
5257;SDS011;2651;51.594;9.928;2023-09-19T02:29:07;1.57;;;1.30;;
5257;SDS011;2651;51.594;9.928;2023-09-19T02:30:08;1.57;;;1.07;;
5257;SDS011;2651;51.594;9.928;2023-09-19T02:31:11;1.27;;;1.17;;
5257;SDS011;2651;51.594;9.928;2023-09-19T02:32:13;1.30;;;1.20;;
5257;SDS011;2651;51.594;9.928;2023-09-19T02:33:15;1.20;;;1.10;;
5257;SDS011;2651;51.594;9.928;2023-09-19T02:34:18;1.90;;;1.20;;
5257;SDS011;2651;51.594;9.928;2023-09-19T02:35:20;2.07;;;1.23;;
5257;SDS011;2651;51.594;9.928;2023-09-19T02:36:22;1.50;;;1.40;;
5257;SDS011;2651;51.594;9.928;2023-09-19T02:37:24;1.63;;;1.53;;
5257;SDS011;2651;51.594;9.928;2023-09-19T02:38:27;1.23;;;1.13;;
5257;SDS011;2651;51.594;9.928;2023-09-19T02:39:28;2.03;;;1.53;;
5257;SDS011;2651;51.594;9.928;2023-09-19T02:40:30;1.90;;;1.23;;
5257;SDS011;2651;51.594;9.928;2023-09-19T02:41:32;1.73;;;1.63;;
5257;SDS011;2651;51.594;9.928;2023-09-19T02:42:35;1.40;;;1.30;;
5257;SDS011;2651;51.594;9.928;2023-09-19T02:43:37;2.10;;;1.77;;
5257;SDS011;2651;51.594;9.928;2023-09-19T02:44:43;3.37;;;1.50;;
5257;SDS011;2651;51.594;9.928;2023-09-19T02:45:48;2.10;;;1.30;;
5257;SDS011;2651;51.594;9.928;2023-09-19T02:46:51;1.00;;;1.00;;
5257;SDS011;2651;51.594;9.928;2023-09-19T02:47:53;1.27;;;1.17;;
5257;SDS011;2651;51.594;9.928;2023-09-19T02:48:56;1.40;;;1.30;;
5257;SDS011;2651;51.594;9.928;2023-09-19T02:49:58;2.37;;;1.40;;
5257;SDS011;2651;51.594;9.928;2023-09-19T02:50:59;1.00;;;1.00;;
5257;SDS011;2651;51.594;9.928;2023-09-19T02:52:01;1.50;;;1.40;;
5257;SDS011;2651;51.594;9.928;2023-09-19T02:53:04;1.40;;;1.30;;
5257;SDS011;2651;51.594;9.928;2023-09-19T02:54:07;1.10;;;1.00;;
5257;SDS011;2651;51.594;9.928;2023-09-19T02:55:09;2.47;;;1.30;;
5257;SDS011;2651;51.594;9.928;2023-09-19T02:56:13;1.40;;;1.27;;
5257;SDS011;2651;51.594;9.928;2023-09-19T02:57:15;1.40;;;1.30;;
5257;SDS011;2651;51.594;9.928;2023-09-19T02:58:18;2.60;;;1.60;;
5257;SDS011;2651;51.594;9.928;2023-09-19T02:59:20;1.83;;;1.43;;
5257;SDS011;2651;51.594;9.928;2023-09-19T03:00:23;1.33;;;1.23;;
5257;SDS011;2651;51.594;9.928;2023-09-19T03:01:25;1.43;;;1.33;;
5257;SDS011;2651;51.594;9.928;2023-09-19T03:02:28;1.50;;;1.40;;
5257;SDS011;2651;51.594;9.928;2023-09-19T03:03:34;1.50;;;1.40;;
5257;SDS011;2651;51.594;9.928;2023-09-19T03:04:36;1.50;;;1.40;;
5257;SDS011;2651;51.594;9.928;2023-09-19T03:05:38;1.20;;;1.20;;
5257;SDS011;2651;51.594;9.928;2023-09-19T03:06:40;1.77;;;1.67;;
5257;SDS011;2651;51.594;9.928;2023-09-19T03:07:42;5.67;;;1.60;;
5257;SDS011;2651;51.594;9.928;2023-09-19T03:08:52;1.90;;;1.60;;
5257;SDS011;2651;51.594;9.928;2023-09-19T03:09:57;2.30;;;1.53;;
5257;SDS011;2651;51.594;9.928;2023-09-19T03:11:05;3.50;;;1.63;;
5257;SDS011;2651;51.594;9.928;2023-09-19T03:12:09;1.30;;;1.30;;
5257;SDS011;2651;51.594;9.928;2023-09-19T03:13:12;1.40;;;1.30;;
5257;SDS011;2651;51.594;9.928;2023-09-19T03:14:14;1.87;;;1.67;;
5257;SDS011;2651;51.594;9.928;2023-09-19T03:15:17;1.70;;;1.60;;
5257;SDS011;2651;51.594;9.928;2023-09-19T03:16:20;1.70;;;1.60;;
5257;SDS011;2651;51.594;9.928;2023-09-19T03:17:26;1.80;;;1.30;;
5257;SDS011;2651;51.594;9.928;2023-09-19T03:18:29;1.83;;;1.67;;
5257;SDS011;2651;51.594;9.928;2023-09-19T03:19:31;1.60;;;1.50;;
5257;SDS011;2651;51.594;9.928;2023-09-19T03:20:35;1.60;;;1.50;;
5257;SDS011;2651;51.594;9.928;2023-09-19T03:21:37;1.90;;;1.80;;
5257;SDS011;2651;51.594;9.928;2023-09-19T03:22:45;1.53;;;1.47;;
5257;SDS011;2651;51.594;9.928;2023-09-19T03:24:00;1.70;;;1.60;;
5257;SDS011;2651;51.594;9.928;2023-09-19T03:25:05;6.30;;;1.77;;
5257;SDS011;2651;51.594;9.928;2023-09-19T03:26:15;8.53;;;1.90;;
5257;SDS011;2651;51.594;9.928;2023-09-19T03:27:17;2.30;;;1.83;;
5257;SDS011;2651;51.594;9.928;2023-09-19T03:28:23;1.83;;;1.73;;
5257;SDS011;2651;51.594;9.928;2023-09-19T03:29:25;1.93;;;1.83;;
5257;SDS011;2651;51.594;9.928;2023-09-19T03:30:28;2.43;;;1.80;;
5257;SDS011;2651;51.594;9.928;2023-09-19T03:31:30;1.60;;;1.50;;
5257;SDS011;2651;51.594;9.928;2023-09-19T03:32:32;2.37;;;1.90;;
5257;SDS011;2651;51.594;9.928;2023-09-19T03:33:34;2.00;;;1.80;;
5257;SDS011;2651;51.594;9.928;2023-09-19T03:34:36;1.70;;;1.60;;
5257;SDS011;2651;51.594;9.928;2023-09-19T03:35:45;1.50;;;1.40;;
5257;SDS011;2651;51.594;9.928;2023-09-19T03:36:54;2.20;;;1.67;;
5257;SDS011;2651;51.594;9.928;2023-09-19T03:37:56;1.87;;;1.77;;
5257;SDS011;2651;51.594;9.928;2023-09-19T03:38:58;1.80;;;1.50;;
5257;SDS011;2651;51.594;9.928;2023-09-19T03:40:00;1.47;;;1.37;;
5257;SDS011;2651;51.594;9.928;2023-09-19T03:41:06;2.53;;;1.40;;
5257;SDS011;2651;51.594;9.928;2023-09-19T03:42:08;2.20;;;1.80;;
5257;SDS011;2651;51.594;9.928;2023-09-19T03:43:11;1.60;;;1.50;;
5257;SDS011;2651;51.594;9.928;2023-09-19T03:44:12;2.37;;;1.77;;
5257;SDS011;2651;51.594;9.928;2023-09-19T03:45:14;2.00;;;1.53;;
5257;SDS011;2651;51.594;9.928;2023-09-19T03:46:17;2.60;;;1.73;;
5257;SDS011;2651;51.594;9.928;2023-09-19T03:47:19;1.60;;;1.50;;
5257;SDS011;2651;51.594;9.928;2023-09-19T03:48:20;1.70;;;1.60;;
5257;SDS011;2651;51.594;9.928;2023-09-19T03:49:22;1.83;;;1.73;;
5257;SDS011;2651;51.594;9.928;2023-09-19T03:50:24;3.33;;;1.80;;
5257;SDS011;2651;51.594;9.928;2023-09-19T03:51:26;3.63;;;1.50;;
5257;SDS011;2651;51.594;9.928;2023-09-19T03:52:27;3.17;;;1.70;;
5257;SDS011;2651;51.594;9.928;2023-09-19T03:53:32;2.03;;;1.80;;
5257;SDS011;2651;51.594;9.928;2023-09-19T03:54:33;1.70;;;1.60;;
5257;SDS011;2651;51.594;9.928;2023-09-19T03:55:35;2.00;;;1.90;;
5257;SDS011;2651;51.594;9.928;2023-09-19T03:56:37;1.73;;;1.30;;
5257;SDS011;2651;51.594;9.928;2023-09-19T03:57:38;1.57;;;1.47;;
5257;SDS011;2651;51.594;9.928;2023-09-19T03:58:40;1.60;;;1.50;;
5257;SDS011;2651;51.594;9.928;2023-09-19T03:59:42;1.60;;;1.50;;
5257;SDS011;2651;51.594;9.928;2023-09-19T04:00:44;2.43;;;1.50;;
5257;SDS011;2651;51.594;9.928;2023-09-19T04:01:46;1.63;;;1.53;;
5257;SDS011;2651;51.594;9.928;2023-09-19T04:02:48;1.43;;;1.37;;
5257;SDS011;2651;51.594;9.928;2023-09-19T04:03:50;1.60;;;1.50;;
5257;SDS011;2651;51.594;9.928;2023-09-19T04:04:54;1.63;;;1.50;;
5257;SDS011;2651;51.594;9.928;2023-09-19T04:05:56;2.00;;;1.50;;
5257;SDS011;2651;51.594;9.928;2023-09-19T04:06:58;6.20;;;1.37;;
5257;SDS011;2651;51.594;9.928;2023-09-19T04:07:59;2.70;;;1.93;;
5257;SDS011;2651;51.594;9.928;2023-09-19T04:09:02;1.93;;;1.67;;
5257;SDS011;2651;51.594;9.928;2023-09-19T04:10:04;1.60;;;1.50;;
5257;SDS011;2651;51.594;9.928;2023-09-19T04:11:07;2.00;;;1.80;;
5257;SDS011;2651;51.594;9.928;2023-09-19T04:12:09;1.30;;;1.30;;
5257;SDS011;2651;51.594;9.928;2023-09-19T04:13:11;1.50;;;1.40;;
5257;SDS011;2651;51.594;9.928;2023-09-19T04:14:12;1.67;;;1.57;;
5257;SDS011;2651;51.594;9.928;2023-09-19T04:15:14;2.07;;;1.97;;
5257;SDS011;2651;51.594;9.928;2023-09-19T04:16:16;1.57;;;1.47;;
5257;SDS011;2651;51.594;9.928;2023-09-19T04:17:17;2.10;;;1.60;;
5257;SDS011;2651;51.594;9.928;2023-09-19T04:18:20;1.60;;;1.50;;
5257;SDS011;2651;51.594;9.928;2023-09-19T04:19:22;3.33;;;1.53;;
5257;SDS011;2651;51.594;9.928;2023-09-19T04:20:24;2.30;;;1.53;;
5257;SDS011;2651;51.594;9.928;2023-09-19T04:21:26;6.00;;;1.63;;
5257;SDS011;2651;51.594;9.928;2023-09-19T04:22:29;1.70;;;1.60;;
5257;SDS011;2651;51.594;9.928;2023-09-19T04:23:34;1.57;;;1.47;;
5257;SDS011;2651;51.594;9.928;2023-09-19T04:24:35;1.87;;;1.77;;
5257;SDS011;2651;51.594;9.928;2023-09-19T04:25:40;1.90;;;1.80;;
5257;SDS011;2651;51.594;9.928;2023-09-19T04:26:42;1.80;;;1.50;;
5257;SDS011;2651;51.594;9.928;2023-09-19T04:27:44;1.93;;;1.60;;
5257;SDS011;2651;51.594;9.928;2023-09-19T04:28:46;1.73;;;1.63;;
5257;SDS011;2651;51.594;9.928;2023-09-19T04:29:47;6.50;;;1.57;;
5257;SDS011;2651;51.594;9.928;2023-09-19T04:30:50;1.40;;;1.30;;
5257;SDS011;2651;51.594;9.928;2023-09-19T04:31:52;3.23;;;1.77;;
5257;SDS011;2651;51.594;9.928;2023-09-19T04:32:54;1.83;;;1.73;;
5257;SDS011;2651;51.594;9.928;2023-09-19T04:33:55;3.20;;;1.77;;
5257;SDS011;2651;51.594;9.928;2023-09-19T04:34:58;2.40;;;1.60;;
5257;SDS011;2651;51.594;9.928;2023-09-19T04:36:01;2.03;;;1.60;;
5257;SDS011;2651;51.594;9.928;2023-09-19T04:37:24;2.83;;;1.50;;
5257;SDS011;2651;51.594;9.928;2023-09-19T04:38:26;2.10;;;1.73;;
5257;SDS011;2651;51.594;9.928;2023-09-19T04:39:30;3.37;;;2.30;;
5257;SDS011;2651;51.594;9.928;2023-09-19T04:40:32;4.40;;;3.50;;
5257;SDS011;2651;51.594;9.928;2023-09-19T04:41:34;3.90;;;3.00;;
5257;SDS011;2651;51.594;9.928;2023-09-19T04:42:35;5.13;;;3.77;;
5257;SDS011;2651;51.594;9.928;2023-09-19T04:43:37;5.50;;;3.83;;
5257;SDS011;2651;51.594;9.928;2023-09-19T04:44:39;4.80;;;2.73;;
5257;SDS011;2651;51.594;9.928;2023-09-19T04:45:41;2.10;;;1.70;;
5257;SDS011;2651;51.594;9.928;2023-09-19T04:46:42;2.50;;;2.20;;
5257;SDS011;2651;51.594;9.928;2023-09-19T04:47:44;2.63;;;2.40;;
5257;SDS011;2651;51.594;9.928;2023-09-19T04:48:46;4.03;;;2.90;;
5257;SDS011;2651;51.594;9.928;2023-09-19T04:49:47;6.83;;;2.13;;
5257;SDS011;2651;51.594;9.928;2023-09-19T04:50:50;1.80;;;1.70;;
5257;SDS011;2651;51.594;9.928;2023-09-19T04:51:52;2.27;;;1.97;;
5257;SDS011;2651;51.594;9.928;2023-09-19T04:52:54;2.50;;;2.30;;
5257;SDS011;2651;51.594;9.928;2023-09-19T04:53:56;2.50;;;2.30;;
5257;SDS011;2651;51.594;9.928;2023-09-19T04:54:58;2.33;;;2.13;;
5257;SDS011;2651;51.594;9.928;2023-09-19T04:56:00;4.03;;;2.10;;
5257;SDS011;2651;51.594;9.928;2023-09-19T04:57:01;1.97;;;1.60;;
5257;SDS011;2651;51.594;9.928;2023-09-19T04:58:03;1.87;;;1.70;;
5257;SDS011;2651;51.594;9.928;2023-09-19T04:59:05;1.97;;;1.80;;
5257;SDS011;2651;51.594;9.928;2023-09-19T05:00:07;2.30;;;2.10;;
5257;SDS011;2651;51.594;9.928;2023-09-19T05:01:13;1.90;;;1.70;;
5257;SDS011;2651;51.594;9.928;2023-09-19T05:02:16;2.23;;;1.70;;
5257;SDS011;2651;51.594;9.928;2023-09-19T05:03:18;1.93;;;1.73;;
5257;SDS011;2651;51.594;9.928;2023-09-19T05:04:21;2.10;;;1.90;;
5257;SDS011;2651;51.594;9.928;2023-09-19T05:05:23;1.90;;;1.80;;
5257;SDS011;2651;51.594;9.928;2023-09-19T05:06:26;2.13;;;1.90;;
5257;SDS011;2651;51.594;9.928;2023-09-19T05:07:28;2.53;;;2.10;;
5257;SDS011;2651;51.594;9.928;2023-09-19T05:08:30;2.50;;;2.30;;
5257;SDS011;2651;51.594;9.928;2023-09-19T05:09:31;2.20;;;1.87;;
5257;SDS011;2651;51.594;9.928;2023-09-19T05:10:35;5.63;;;2.00;;
5257;SDS011;2651;51.594;9.928;2023-09-19T05:11:39;2.27;;;2.17;;
5257;SDS011;2651;51.594;9.928;2023-09-19T05:12:41;1.50;;;1.40;;
5257;SDS011;2651;51.594;9.928;2023-09-19T05:13:42;5.83;;;2.33;;
5257;SDS011;2651;51.594;9.928;2023-09-19T05:14:44;2.50;;;2.30;;
5257;SDS011;2651;51.594;9.928;2023-09-19T05:15:46;8.00;;;4.30;;
5257;SDS011;2651;51.594;9.928;2023-09-19T05:16:48;2.77;;;2.47;;
5257;SDS011;2651;51.594;9.928;2023-09-19T05:17:50;6.57;;;3.47;;
5257;SDS011;2651;51.594;9.928;2023-09-19T05:18:57;3.03;;;2.20;;
5257;SDS011;2651;51.594;9.928;2023-09-19T05:20:01;6.00;;;2.60;;
5257;SDS011;2651;51.594;9.928;2023-09-19T05:21:16;2.70;;;2.50;;
5257;SDS011;2651;51.594;9.928;2023-09-19T05:22:19;1.80;;;1.70;;
5257;SDS011;2651;51.594;9.928;2023-09-19T05:23:20;2.50;;;2.30;;
5257;SDS011;2651;51.594;9.928;2023-09-19T05:24:22;5.93;;;2.00;;
5257;SDS011;2651;51.594;9.928;2023-09-19T05:25:24;3.83;;;2.20;;
5257;SDS011;2651;51.594;9.928;2023-09-19T05:26:26;2.90;;;2.27;;
5257;SDS011;2651;51.594;9.928;2023-09-19T05:27:28;3.13;;;2.60;;
5257;SDS011;2651;51.594;9.928;2023-09-19T05:28:30;3.57;;;2.30;;
5257;SDS011;2651;51.594;9.928;2023-09-19T05:29:31;2.17;;;1.93;;
5257;SDS011;2651;51.594;9.928;2023-09-19T05:30:35;2.50;;;1.87;;
5257;SDS011;2651;51.594;9.928;2023-09-19T05:31:37;4.37;;;2.20;;
5257;SDS011;2651;51.594;9.928;2023-09-19T05:32:42;4.30;;;2.97;;
5257;SDS011;2651;51.594;9.928;2023-09-19T05:33:45;7.93;;;4.07;;
5257;SDS011;2651;51.594;9.928;2023-09-19T05:34:46;4.00;;;2.87;;
5257;SDS011;2651;51.594;9.928;2023-09-19T05:35:48;2.50;;;2.30;;
5257;SDS011;2651;51.594;9.928;2023-09-19T05:36:50;2.67;;;2.30;;
5257;SDS011;2651;51.594;9.928;2023-09-19T05:37:53;3.03;;;2.13;;
5257;SDS011;2651;51.594;9.928;2023-09-19T05:38:56;1.63;;;1.53;;
5257;SDS011;2651;51.594;9.928;2023-09-19T05:39:58;2.60;;;2.40;;
5257;SDS011;2651;51.594;9.928;2023-09-19T05:41:00;3.87;;;2.27;;
5257;SDS011;2651;51.594;9.928;2023-09-19T05:42:03;2.37;;;2.17;;
5257;SDS011;2651;51.594;9.928;2023-09-19T05:43:05;5.13;;;2.20;;
5257;SDS011;2651;51.594;9.928;2023-09-19T05:44:07;2.70;;;2.50;;
5257;SDS011;2651;51.594;9.928;2023-09-19T05:45:09;8.93;;;2.50;;
5257;SDS011;2651;51.594;9.928;2023-09-19T05:46:14;5.87;;;2.47;;
5257;SDS011;2651;51.594;9.928;2023-09-19T05:47:18;2.60;;;2.30;;
5257;SDS011;2651;51.594;9.928;2023-09-19T05:48:20;7.43;;;2.20;;
5257;SDS011;2651;51.594;9.928;2023-09-19T05:49:22;5.77;;;2.43;;
5257;SDS011;2651;51.594;9.928;2023-09-19T05:50:25;2.70;;;1.80;;
5257;SDS011;2651;51.594;9.928;2023-09-19T05:51:27;9.83;;;3.70;;
5257;SDS011;2651;51.594;9.928;2023-09-19T05:52:29;3.73;;;1.87;;
5257;SDS011;2651;51.594;9.928;2023-09-19T05:53:31;2.33;;;1.80;;
5257;SDS011;2651;51.594;9.928;2023-09-19T05:54:33;3.50;;;1.97;;
5257;SDS011;2651;51.594;9.928;2023-09-19T05:55:38;1.63;;;1.53;;
5257;SDS011;2651;51.594;9.928;2023-09-19T05:56:40;2.53;;;2.33;;
5257;SDS011;2651;51.594;9.928;2023-09-19T05:57:43;1.90;;;1.60;;
5257;SDS011;2651;51.594;9.928;2023-09-19T05:58:51;1.93;;;1.73;;
5257;SDS011;2651;51.594;9.928;2023-09-19T05:59:53;3.67;;;1.80;;
5257;SDS011;2651;51.594;9.928;2023-09-19T06:00:55;1.90;;;1.80;;
5257;SDS011;2651;51.594;9.928;2023-09-19T06:01:58;7.67;;;2.07;;
5257;SDS011;2651;51.594;9.928;2023-09-19T06:03:00;1.70;;;1.60;;
5257;SDS011;2651;51.594;9.928;2023-09-19T06:04:02;6.40;;;2.37;;
5257;SDS011;2651;51.594;9.928;2023-09-19T06:05:06;3.87;;;2.60;;
5257;SDS011;2651;51.594;9.928;2023-09-19T06:06:11;5.47;;;1.77;;
5257;SDS011;2651;51.594;9.928;2023-09-19T06:07:13;4.57;;;1.63;;
5257;SDS011;2651;51.594;9.928;2023-09-19T06:08:16;1.93;;;1.37;;
5257;SDS011;2651;51.594;9.928;2023-09-19T06:09:18;1.60;;;1.50;;
5257;SDS011;2651;51.594;9.928;2023-09-19T06:10:23;1.60;;;1.50;;
5257;SDS011;2651;51.594;9.928;2023-09-19T06:11:26;3.30;;;1.60;;
5257;SDS011;2651;51.594;9.928;2023-09-19T06:12:29;1.67;;;1.57;;
5257;SDS011;2651;51.594;9.928;2023-09-19T06:13:31;5.23;;;1.83;;
5257;SDS011;2651;51.594;9.928;2023-09-19T06:14:34;2.43;;;1.60;;
5257;SDS011;2651;51.594;9.928;2023-09-19T06:15:36;1.50;;;1.40;;
5257;SDS011;2651;51.594;9.928;2023-09-19T06:16:38;1.13;;;1.10;;
5257;SDS011;2651;51.594;9.928;2023-09-19T06:17:41;2.00;;;1.80;;
5257;SDS011;2651;51.594;9.928;2023-09-19T06:18:49;3.80;;;1.90;;
5257;SDS011;2651;51.594;9.928;2023-09-19T06:19:51;1.90;;;1.73;;
5257;SDS011;2651;51.594;9.928;2023-09-19T06:20:53;1.73;;;1.57;;
5257;SDS011;2651;51.594;9.928;2023-09-19T06:21:55;5.27;;;2.17;;
5257;SDS011;2651;51.594;9.928;2023-09-19T06:22:57;2.00;;;1.30;;
5257;SDS011;2651;51.594;9.928;2023-09-19T06:23:59;5.20;;;1.50;;
5257;SDS011;2651;51.594;9.928;2023-09-19T06:25:00;1.43;;;1.33;;
5257;SDS011;2651;51.594;9.928;2023-09-19T06:26:03;1.63;;;1.53;;
5257;SDS011;2651;51.594;9.928;2023-09-19T06:27:07;1.30;;;1.20;;
5257;SDS011;2651;51.594;9.928;2023-09-19T06:28:10;1.83;;;1.60;;
5257;SDS011;2651;51.594;9.928;2023-09-19T06:29:13;1.40;;;1.30;;
5257;SDS011;2651;51.594;9.928;2023-09-19T06:30:15;1.23;;;1.07;;
5257;SDS011;2651;51.594;9.928;2023-09-19T06:31:18;3.27;;;1.30;;
5257;SDS011;2651;51.594;9.928;2023-09-19T06:32:28;2.50;;;1.60;;
5257;SDS011;2651;51.594;9.928;2023-09-19T06:33:30;2.10;;;1.53;;
5257;SDS011;2651;51.594;9.928;2023-09-19T06:34:32;2.40;;;1.30;;
5257;SDS011;2651;51.594;9.928;2023-09-19T06:35:35;2.00;;;1.80;;
5257;SDS011;2651;51.594;9.928;2023-09-19T06:36:36;1.40;;;1.30;;
5257;SDS011;2651;51.594;9.928;2023-09-19T06:37:39;11.57;;;1.90;;
5257;SDS011;2651;51.594;9.928;2023-09-19T06:38:42;5.13;;;1.87;;
5257;SDS011;2651;51.594;9.928;2023-09-19T06:39:43;2.30;;;1.50;;
5257;SDS011;2651;51.594;9.928;2023-09-19T06:40:45;1.50;;;1.40;;
5257;SDS011;2651;51.594;9.928;2023-09-19T06:41:47;6.40;;;1.77;;
5257;SDS011;2651;51.594;9.928;2023-09-19T06:42:52;1.37;;;1.20;;
5257;SDS011;2651;51.594;9.928;2023-09-19T06:43:55;1.83;;;1.30;;
5257;SDS011;2651;51.594;9.928;2023-09-19T06:44:57;1.60;;;1.50;;
5257;SDS011;2651;51.594;9.928;2023-09-19T06:45:58;4.07;;;1.70;;
5257;SDS011;2651;51.594;9.928;2023-09-19T06:47:01;3.23;;;1.63;;
5257;SDS011;2651;51.594;9.928;2023-09-19T06:48:03;1.50;;;1.40;;
5257;SDS011;2651;51.594;9.928;2023-09-19T06:49:06;3.83;;;1.43;;